sensor_id;sensor_type;location;lat;lon;timestamp;P1;durP1;ratioP1;P2;durP2;ratioP2
56373;SDS011;58212;47.034;7.376;2023-05-23T00:00:35;6.93;;;5.97;;
56373;SDS011;58212;47.034;7.376;2023-05-23T00:03:02;8.18;;;6.18;;
56373;SDS011;58212;47.034;7.376;2023-05-23T00:05:32;6.78;;;6.18;;
56373;SDS011;58212;47.034;7.376;2023-05-23T00:08:00;7.53;;;6.82;;
56373;SDS011;58212;47.034;7.376;2023-05-23T00:10:27;7.65;;;6.85;;
56373;SDS011;58212;47.034;7.376;2023-05-23T00:12:54;7.25;;;6.30;;
56373;SDS011;58212;47.034;7.376;2023-05-23T00:15:22;7.20;;;5.97;;
56373;SDS011;58212;47.034;7.376;2023-05-23T00:17:50;7.30;;;6.15;;
56373;SDS011;58212;47.034;7.376;2023-05-23T00:20:18;7.90;;;5.75;;
56373;SDS011;58212;47.034;7.376;2023-05-23T00:22:47;6.88;;;6.32;;
56373;SDS011;58212;47.034;7.376;2023-05-23T00:25:14;7.05;;;6.45;;
56373;SDS011;58212;47.034;7.376;2023-05-23T00:27:41;7.05;;;5.95;;
56373;SDS011;58212;47.034;7.376;2023-05-23T00:30:09;6.82;;;6.22;;
56373;SDS011;58212;47.034;7.376;2023-05-23T00:32:36;5.95;;;5.45;;
56373;SDS011;58212;47.034;7.376;2023-05-23T00:35:04;6.45;;;5.85;;
56373;SDS011;58212;47.034;7.376;2023-05-23T00:37:35;6.95;;;6.18;;
56373;SDS011;58212;47.034;7.376;2023-05-23T00:40:04;6.53;;;6.03;;
56373;SDS011;58212;47.034;7.376;2023-05-23T00:42:36;6.70;;;6.20;;
56373;SDS011;58212;47.034;7.376;2023-05-23T00:45:03;7.15;;;6.43;;
56373;SDS011;58212;47.034;7.376;2023-05-23T00:47:33;7.65;;;6.20;;
56373;SDS011;58212;47.034;7.376;2023-05-23T00:50:03;6.10;;;5.50;;
56373;SDS011;58212;47.034;7.376;2023-05-23T00:52:37;7.13;;;6.20;;
56373;SDS011;58212;47.034;7.376;2023-05-23T00:55:07;7.70;;;6.15;;
56373;SDS011;58212;47.034;7.376;2023-05-23T00:57:40;7.00;;;6.20;;
56373;SDS011;58212;47.034;7.376;2023-05-23T01:00:10;7.10;;;5.95;;
56373;SDS011;58212;47.034;7.376;2023-05-23T01:02:39;8.43;;;6.43;;
56373;SDS011;58212;47.034;7.376;2023-05-23T01:05:09;6.22;;;5.72;;
56373;SDS011;58212;47.034;7.376;2023-05-23T01:07:39;6.80;;;6.10;;
56373;SDS011;58212;47.034;7.376;2023-05-23T01:10:32;7.25;;;6.03;;
56373;SDS011;58212;47.034;7.376;2023-05-23T01:13:04;6.93;;;6.18;;
56373;SDS011;58212;47.034;7.376;2023-05-23T01:15:41;7.15;;;6.07;;
56373;SDS011;58212;47.034;7.376;2023-05-23T01:18:15;6.70;;;6.10;;
56373;SDS011;58212;47.034;7.376;2023-05-23T01:20:44;7.68;;;6.95;;
56373;SDS011;58212;47.034;7.376;2023-05-23T01:23:26;7.28;;;6.18;;
56373;SDS011;58212;47.034;7.376;2023-05-23T01:26:14;7.18;;;6.30;;
56373;SDS011;58212;47.034;7.376;2023-05-23T01:29:18;7.22;;;6.25;;
56373;SDS011;58212;47.034;7.376;2023-05-23T01:31:51;7.03;;;6.30;;
56373;SDS011;58212;47.034;7.376;2023-05-23T01:34:46;7.78;;;6.30;;
56373;SDS011;58212;47.034;7.376;2023-05-23T01:37:39;6.38;;;5.80;;
56373;SDS011;58212;47.034;7.376;2023-05-23T01:40:07;6.35;;;5.75;;
56373;SDS011;58212;47.034;7.376;2023-05-23T01:42:35;6.68;;;6.15;;
56373;SDS011;58212;47.034;7.376;2023-05-23T01:45:05;6.53;;;5.93;;
56373;SDS011;58212;47.034;7.376;2023-05-23T01:47:34;6.82;;;6.07;;
56373;SDS011;58212;47.034;7.376;2023-05-23T01:50:03;7.00;;;6.28;;
56373;SDS011;58212;47.034;7.376;2023-05-23T01:52:32;6.80;;;6.15;;
56373;SDS011;58212;47.034;7.376;2023-05-23T01:55:00;9.13;;;5.93;;
56373;SDS011;58212;47.034;7.376;2023-05-23T01:57:36;6.20;;;5.68;;
56373;SDS011;58212;47.034;7.376;2023-05-23T02:00:05;6.53;;;5.93;;
56373;SDS011;58212;47.034;7.376;2023-05-23T02:02:39;6.57;;;5.97;;
56373;SDS011;58212;47.034;7.376;2023-05-23T02:05:09;6.85;;;6.10;;
56373;SDS011;58212;47.034;7.376;2023-05-23T02:07:37;7.60;;;6.43;;
56373;SDS011;58212;47.034;7.376;2023-05-23T02:10:06;7.05;;;6.35;;
56373;SDS011;58212;47.034;7.376;2023-05-23T02:12:36;8.50;;;5.80;;
56373;SDS011;58212;47.034;7.376;2023-05-23T02:15:04;6.65;;;6.05;;
56373;SDS011;58212;47.034;7.376;2023-05-23T02:17:34;6.32;;;5.80;;
56373;SDS011;58212;47.034;7.376;2023-05-23T02:20:04;6.55;;;5.95;;
56373;SDS011;58212;47.034;7.376;2023-05-23T02:22:35;6.68;;;6.07;;
56373;SDS011;58212;47.034;7.376;2023-05-23T02:25:03;5.97;;;5.47;;
56373;SDS011;58212;47.034;7.376;2023-05-23T02:27:31;6.75;;;6.15;;
56373;SDS011;58212;47.034;7.376;2023-05-23T02:29:59;7.38;;;6.13;;
56373;SDS011;58212;47.034;7.376;2023-05-23T02:32:28;5.97;;;5.40;;
56373;SDS011;58212;47.034;7.376;2023-05-23T02:34:56;6.97;;;6.10;;
56373;SDS011;58212;47.034;7.376;2023-05-23T02:37:24;6.50;;;5.90;;
56373;SDS011;58212;47.034;7.376;2023-05-23T02:39:51;6.35;;;5.78;;
56373;SDS011;58212;47.034;7.376;2023-05-23T02:42:20;6.88;;;6.25;;
56373;SDS011;58212;47.034;7.376;2023-05-23T02:44:47;5.90;;;5.35;;
56373;SDS011;58212;47.034;7.376;2023-05-23T02:47:14;5.93;;;5.40;;
56373;SDS011;58212;47.034;7.376;2023-05-23T02:49:44;5.97;;;5.30;;
56373;SDS011;58212;47.034;7.376;2023-05-23T02:52:12;7.32;;;6.70;;
56373;SDS011;58212;47.034;7.376;2023-05-23T02:54:40;6.20;;;5.60;;
56373;SDS011;58212;47.034;7.376;2023-05-23T02:57:07;6.63;;;6.03;;
56373;SDS011;58212;47.034;7.376;2023-05-23T02:59:37;6.75;;;6.15;;
56373;SDS011;58212;47.034;7.376;2023-05-23T03:02:05;7.68;;;5.57;;
56373;SDS011;58212;47.034;7.376;2023-05-23T03:04:33;6.45;;;5.95;;
56373;SDS011;58212;47.034;7.376;2023-05-23T03:07:03;6.60;;;5.43;;
56373;SDS011;58212;47.034;7.376;2023-05-23T03:09:38;6.55;;;5.95;;
56373;SDS011;58212;47.034;7.376;2023-05-23T03:12:06;6.03;;;5.40;;
56373;SDS011;58212;47.034;7.376;2023-05-23T03:14:36;5.55;;;5.05;;
56373;SDS011;58212;47.034;7.376;2023-05-23T03:17:03;7.40;;;5.65;;
56373;SDS011;58212;47.034;7.376;2023-05-23T03:19:31;5.40;;;4.90;;
56373;SDS011;58212;47.034;7.376;2023-05-23T03:21:58;6.15;;;5.50;;
56373;SDS011;58212;47.034;7.376;2023-05-23T03:24:26;5.97;;;5.38;;
56373;SDS011;58212;47.034;7.376;2023-05-23T03:26:53;7.13;;;5.57;;
56373;SDS011;58212;47.034;7.376;2023-05-23T03:29:22;6.18;;;5.38;;
56373;SDS011;58212;47.034;7.376;2023-05-23T03:31:51;6.03;;;5.53;;
56373;SDS011;58212;47.034;7.376;2023-05-23T03:34:18;6.07;;;5.55;;
56373;SDS011;58212;47.034;7.376;2023-05-23T03:36:47;5.68;;;5.18;;
56373;SDS011;58212;47.034;7.376;2023-05-23T03:39:15;6.28;;;5.60;;
56373;SDS011;58212;47.034;7.376;2023-05-23T03:41:43;6.50;;;5.75;;
56373;SDS011;58212;47.034;7.376;2023-05-23T03:44:10;5.80;;;5.18;;
56373;SDS011;58212;47.034;7.376;2023-05-23T03:46:38;6.05;;;5.50;;
56373;SDS011;58212;47.034;7.376;2023-05-23T03:49:06;6.80;;;5.60;;
56373;SDS011;58212;47.034;7.376;2023-05-23T03:51:34;6.22;;;5.72;;
56373;SDS011;58212;47.034;7.376;2023-05-23T03:54:01;5.93;;;5.47;;
56373;SDS011;58212;47.034;7.376;2023-05-23T03:56:28;5.05;;;4.65;;
56373;SDS011;58212;47.034;7.376;2023-05-23T03:59:22;6.07;;;5.15;;
56373;SDS011;58212;47.034;7.376;2023-05-23T04:01:52;6.15;;;5.20;;
56373;SDS011;58212;47.034;7.376;2023-05-23T04:04:23;6.30;;;5.70;;
56373;SDS011;58212;47.034;7.376;2023-05-23T04:06:51;5.75;;;5.25;;
56373;SDS011;58212;47.034;7.376;2023-05-23T04:09:18;7.30;;;5.15;;
56373;SDS011;58212;47.034;7.376;2023-05-23T04:11:47;5.38;;;4.97;;
56373;SDS011;58212;47.034;7.376;2023-05-23T04:14:14;5.85;;;5.35;;
56373;SDS011;58212;47.034;7.376;2023-05-23T04:16:43;5.93;;;5.32;;
56373;SDS011;58212;47.034;7.376;2023-05-23T04:19:11;5.60;;;5.10;;
56373;SDS011;58212;47.034;7.376;2023-05-23T04:21:41;5.85;;;5.35;;
56373;SDS011;58212;47.034;7.376;2023-05-23T04:24:13;5.82;;;5.22;;
56373;SDS011;58212;47.034;7.376;2023-05-23T04:26:48;7.15;;;5.35;;
56373;SDS011;58212;47.034;7.376;2023-05-23T04:29:21;6.18;;;5.22;;
56373;SDS011;58212;47.034;7.376;2023-05-23T04:31:51;5.75;;;5.25;;
56373;SDS011;58212;47.034;7.376;2023-05-23T04:34:19;5.57;;;5.07;;
56373;SDS011;58212;47.034;7.376;2023-05-23T04:36:46;6.05;;;5.45;;
56373;SDS011;58212;47.034;7.376;2023-05-23T04:39:14;6.03;;;5.00;;
56373;SDS011;58212;47.034;7.376;2023-05-23T04:41:58;5.35;;;4.95;;
56373;SDS011;58212;47.034;7.376;2023-05-23T04:44:48;5.95;;;5.45;;
56373;SDS011;58212;47.034;7.376;2023-05-23T04:47:22;5.63;;;5.13;;
56373;SDS011;58212;47.034;7.376;2023-05-23T04:50:04;5.20;;;4.80;;
56373;SDS011;58212;47.034;7.376;2023-05-23T04:52:33;6.45;;;5.80;;
56373;SDS011;58212;47.034;7.376;2023-05-23T04:55:02;8.13;;;5.53;;
56373;SDS011;58212;47.034;7.376;2023-05-23T04:57:30;5.82;;;5.30;;
56373;SDS011;58212;47.034;7.376;2023-05-23T05:00:00;6.13;;;5.63;;
56373;SDS011;58212;47.034;7.376;2023-05-23T05:02:34;5.93;;;5.38;;
56373;SDS011;58212;47.034;7.376;2023-05-23T05:05:01;6.20;;;5.70;;
56373;SDS011;58212;47.034;7.376;2023-05-23T05:07:29;5.75;;;5.25;;
56373;SDS011;58212;47.034;7.376;2023-05-23T05:09:56;7.05;;;5.53;;
56373;SDS011;58212;47.034;7.376;2023-05-23T05:12:24;5.55;;;5.05;;
56373;SDS011;58212;47.034;7.376;2023-05-23T05:14:54;5.72;;;4.82;;
56373;SDS011;58212;47.034;7.376;2023-05-23T05:17:24;5.43;;;5.00;;
56373;SDS011;58212;47.034;7.376;2023-05-23T05:20:05;5.63;;;5.13;;
56373;SDS011;58212;47.034;7.376;2023-05-23T05:22:36;5.60;;;5.10;;
56373;SDS011;58212;47.034;7.376;2023-05-23T05:25:05;6.18;;;4.75;;
56373;SDS011;58212;47.034;7.376;2023-05-23T05:27:33;5.28;;;4.88;;
56373;SDS011;58212;47.034;7.376;2023-05-23T05:30:04;6.10;;;5.50;;
56373;SDS011;58212;47.034;7.376;2023-05-23T05:32:43;6.30;;;5.63;;
56373;SDS011;58212;47.034;7.376;2023-05-23T05:35:15;7.30;;;6.60;;
56373;SDS011;58212;47.034;7.376;2023-05-23T05:37:43;10.80;;;6.72;;
56373;SDS011;58212;47.034;7.376;2023-05-23T05:40:11;5.88;;;5.45;;
56373;SDS011;58212;47.034;7.376;2023-05-23T05:42:41;7.68;;;5.93;;
56373;SDS011;58212;47.034;7.376;2023-05-23T05:45:12;6.40;;;5.90;;
56373;SDS011;58212;47.034;7.376;2023-05-23T05:47:43;7.05;;;6.45;;
56373;SDS011;58212;47.034;7.376;2023-05-23T05:50:10;7.45;;;6.85;;
56373;SDS011;58212;47.034;7.376;2023-05-23T05:52:39;7.80;;;6.38;;
56373;SDS011;58212;47.034;7.376;2023-05-23T05:55:07;9.18;;;6.50;;
56373;SDS011;58212;47.034;7.376;2023-05-23T05:57:36;7.43;;;6.68;;
56373;SDS011;58212;47.034;7.376;2023-05-23T06:00:05;8.57;;;7.78;;
56373;SDS011;58212;47.034;7.376;2023-05-23T06:02:43;7.32;;;6.57;;
56373;SDS011;58212;47.034;7.376;2023-05-23T06:05:21;8.27;;;6.38;;
56373;SDS011;58212;47.034;7.376;2023-05-23T06:07:51;7.25;;;6.57;;
56373;SDS011;58212;47.034;7.376;2023-05-23T06:10:20;7.93;;;7.07;;
56373;SDS011;58212;47.034;7.376;2023-05-23T06:12:49;7.22;;;6.57;;
56373;SDS011;58212;47.034;7.376;2023-05-23T06:15:16;8.45;;;7.65;;
56373;SDS011;58212;47.034;7.376;2023-05-23T06:17:44;8.27;;;7.47;;
56373;SDS011;58212;47.034;7.376;2023-05-23T06:20:12;9.15;;;8.35;;
56373;SDS011;58212;47.034;7.376;2023-05-23T06:22:42;9.68;;;8.77;;
56373;SDS011;58212;47.034;7.376;2023-05-23T06:25:12;11.60;;;10.50;;
56373;SDS011;58212;47.034;7.376;2023-05-23T06:27:39;12.45;;;11.30;;
56373;SDS011;58212;47.034;7.376;2023-05-23T06:30:07;13.95;;;12.55;;
56373;SDS011;58212;47.034;7.376;2023-05-23T06:32:34;16.27;;;14.32;;
56373;SDS011;58212;47.034;7.376;2023-05-23T06:35:01;15.77;;;14.25;;
56373;SDS011;58212;47.034;7.376;2023-05-23T06:37:29;15.85;;;14.25;;
56373;SDS011;58212;47.034;7.376;2023-05-23T06:39:56;18.92;;;16.77;;
56373;SDS011;58212;47.034;7.376;2023-05-23T06:42:25;19.83;;;17.83;;
56373;SDS011;58212;47.034;7.376;2023-05-23T06:45:01;19.90;;;17.80;;
56373;SDS011;58212;47.034;7.376;2023-05-23T06:47:53;18.02;;;16.42;;
56373;SDS011;58212;47.034;7.376;2023-05-23T06:50:21;17.98;;;16.17;;
56373;SDS011;58212;47.034;7.376;2023-05-23T06:52:51;20.90;;;18.77;;
56373;SDS011;58212;47.034;7.376;2023-05-23T06:55:21;21.42;;;18.67;;
56373;SDS011;58212;47.034;7.376;2023-05-23T06:57:50;20.88;;;18.73;;
56373;SDS011;58212;47.034;7.376;2023-05-23T07:00:19;19.77;;;16.45;;
56373;SDS011;58212;47.034;7.376;2023-05-23T07:03:06;19.27;;;17.02;;
56373;SDS011;58212;47.034;7.376;2023-05-23T07:05:34;19.13;;;15.63;;
56373;SDS011;58212;47.034;7.376;2023-05-23T07:08:02;23.77;;;15.88;;
56373;SDS011;58212;47.034;7.376;2023-05-23T07:10:29;19.20;;;17.17;;
56373;SDS011;58212;47.034;7.376;2023-05-23T07:13:07;18.08;;;15.95;;
56373;SDS011;58212;47.034;7.376;2023-05-23T07:15:35;19.50;;;15.88;;
56373;SDS011;58212;47.034;7.376;2023-05-23T07:18:08;18.63;;;16.27;;
56373;SDS011;58212;47.034;7.376;2023-05-23T07:20:36;17.90;;;16.00;;
56373;SDS011;58212;47.034;7.376;2023-05-23T07:23:16;17.42;;;15.32;;
56373;SDS011;58212;47.034;7.376;2023-05-23T07:25:51;24.38;;;16.67;;
56373;SDS011;58212;47.034;7.376;2023-05-23T07:28:25;21.25;;;16.77;;
56373;SDS011;58212;47.034;7.376;2023-05-23T07:30:54;19.58;;;17.48;;
56373;SDS011;58212;47.034;7.376;2023-05-23T07:33:22;20.98;;;17.45;;
56373;SDS011;58212;47.034;7.376;2023-05-23T07:35:52;19.35;;;17.27;;
56373;SDS011;58212;47.034;7.376;2023-05-23T07:38:19;18.92;;;17.02;;
56373;SDS011;58212;47.034;7.376;2023-05-23T07:40:46;19.52;;;17.75;;
56373;SDS011;58212;47.034;7.376;2023-05-23T07:43:13;19.90;;;17.95;;
56373;SDS011;58212;47.034;7.376;2023-05-23T07:45:41;20.10;;;18.10;;
56373;SDS011;58212;47.034;7.376;2023-05-23T07:48:09;20.10;;;18.20;;
56373;SDS011;58212;47.034;7.376;2023-05-23T07:50:36;19.05;;;17.10;;
56373;SDS011;58212;47.034;7.376;2023-05-23T07:53:06;19.73;;;17.83;;
56373;SDS011;58212;47.034;7.376;2023-05-23T07:55:34;17.75;;;16.17;;
56373;SDS011;58212;47.034;7.376;2023-05-23T07:58:01;17.48;;;15.73;;
56373;SDS011;58212;47.034;7.376;2023-05-23T08:00:30;16.80;;;15.13;;
56373;SDS011;58212;47.034;7.376;2023-05-23T08:03:06;15.80;;;14.30;;
56373;SDS011;58212;47.034;7.376;2023-05-23T08:05:39;14.27;;;12.88;;
56373;SDS011;58212;47.034;7.376;2023-05-23T08:08:06;15.93;;;14.43;;
56373;SDS011;58212;47.034;7.376;2023-05-23T08:10:33;15.30;;;13.90;;
56373;SDS011;58212;47.034;7.376;2023-05-23T08:13:08;15.05;;;13.65;;
56373;SDS011;58212;47.034;7.376;2023-05-23T08:15:50;16.50;;;15.05;;
56373;SDS011;58212;47.034;7.376;2023-05-23T08:18:24;15.98;;;14.48;;
56373;SDS011;58212;47.034;7.376;2023-05-23T08:21:04;15.30;;;13.73;;
56373;SDS011;58212;47.034;7.376;2023-05-23T08:23:31;14.60;;;13.23;;
56373;SDS011;58212;47.034;7.376;2023-05-23T08:25:58;16.13;;;14.73;;
56373;SDS011;58212;47.034;7.376;2023-05-23T08:28:26;15.05;;;13.75;;
56373;SDS011;58212;47.034;7.376;2023-05-23T08:30:53;16.23;;;14.60;;
56373;SDS011;58212;47.034;7.376;2023-05-23T08:33:25;20.40;;;18.52;;
56373;SDS011;58212;47.034;7.376;2023-05-23T08:35:55;21.48;;;19.48;;
56373;SDS011;58212;47.034;7.376;2023-05-23T08:38:22;21.77;;;19.88;;
56373;SDS011;58212;47.034;7.376;2023-05-23T08:41:18;21.95;;;19.95;;
56373;SDS011;58212;47.034;7.376;2023-05-23T08:43:48;22.42;;;20.33;;
56373;SDS011;58212;47.034;7.376;2023-05-23T08:46:24;22.27;;;20.27;;
56373;SDS011;58212;47.034;7.376;2023-05-23T08:48:54;23.02;;;20.70;;
56373;SDS011;58212;47.034;7.376;2023-05-23T08:51:24;21.50;;;19.48;;
56373;SDS011;58212;47.034;7.376;2023-05-23T08:53:54;23.27;;;20.88;;
56373;SDS011;58212;47.034;7.376;2023-05-23T08:56:24;23.05;;;20.95;;
56373;SDS011;58212;47.034;7.376;2023-05-23T08:58:52;22.05;;;20.02;;
56373;SDS011;58212;47.034;7.376;2023-05-23T09:01:23;23.20;;;20.95;;
56373;SDS011;58212;47.034;7.376;2023-05-23T09:03:56;22.25;;;20.25;;
56373;SDS011;58212;47.034;7.376;2023-05-23T09:06:33;23.75;;;21.33;;
56373;SDS011;58212;47.034;7.376;2023-05-23T09:09:01;24.10;;;21.73;;
56373;SDS011;58212;47.034;7.376;2023-05-23T09:11:30;24.67;;;22.35;;
56373;SDS011;58212;47.034;7.376;2023-05-23T09:13:59;22.75;;;20.83;;
56373;SDS011;58212;47.034;7.376;2023-05-23T09:16:30;23.90;;;21.50;;
56373;SDS011;58212;47.034;7.376;2023-05-23T09:19:08;23.67;;;21.50;;
56373;SDS011;58212;47.034;7.376;2023-05-23T09:21:36;24.02;;;21.75;;
56373;SDS011;58212;47.034;7.376;2023-05-23T09:24:14;25.40;;;23.00;;
56373;SDS011;58212;47.034;7.376;2023-05-23T09:26:41;25.52;;;23.23;;
56373;SDS011;58212;47.034;7.376;2023-05-23T09:29:13;22.13;;;19.92;;
56373;SDS011;58212;47.034;7.376;2023-05-23T09:31:44;21.95;;;19.90;;
56373;SDS011;58212;47.034;7.376;2023-05-23T09:34:13;23.33;;;21.23;;
56373;SDS011;58212;47.034;7.376;2023-05-23T09:36:40;22.85;;;20.70;;
56373;SDS011;58212;47.034;7.376;2023-05-23T09:39:10;23.60;;;21.25;;
56373;SDS011;58212;47.034;7.376;2023-05-23T09:41:38;22.60;;;20.52;;
56373;SDS011;58212;47.034;7.376;2023-05-23T09:44:12;24.88;;;22.40;;
56373;SDS011;58212;47.034;7.376;2023-05-23T09:46:40;23.35;;;21.05;;
56373;SDS011;58212;47.034;7.376;2023-05-23T09:49:15;22.33;;;20.23;;
56373;SDS011;58212;47.034;7.376;2023-05-23T09:51:55;22.95;;;20.85;;
56373;SDS011;58212;47.034;7.376;2023-05-23T09:54:22;22.65;;;20.58;;
56373;SDS011;58212;47.034;7.376;2023-05-23T09:56:50;22.58;;;20.45;;
56373;SDS011;58212;47.034;7.376;2023-05-23T09:59:20;24.77;;;22.55;;
56373;SDS011;58212;47.034;7.376;2023-05-23T10:01:50;23.88;;;21.73;;
56373;SDS011;58212;47.034;7.376;2023-05-23T10:04:20;26.00;;;23.58;;
56373;SDS011;58212;47.034;7.376;2023-05-23T10:06:49;25.20;;;22.80;;
56373;SDS011;58212;47.034;7.376;2023-05-23T10:09:20;25.70;;;23.08;;
56373;SDS011;58212;47.034;7.376;2023-05-23T10:12:20;23.50;;;21.42;;
56373;SDS011;58212;47.034;7.376;2023-05-23T10:15:10;24.42;;;22.02;;
56373;SDS011;58212;47.034;7.376;2023-05-23T10:20:33;24.00;;;21.75;;
56373;SDS011;58212;47.034;7.376;2023-05-23T10:25:58;23.75;;;21.67;;
56373;SDS011;58212;47.034;7.376;2023-05-23T10:28:25;23.30;;;21.10;;
56373;SDS011;58212;47.034;7.376;2023-05-23T10:30:54;24.80;;;22.40;;
56373;SDS011;58212;47.034;7.376;2023-05-23T10:33:22;25.38;;;22.92;;
56373;SDS011;58212;47.034;7.376;2023-05-23T10:35:55;25.67;;;23.38;;
56373;SDS011;58212;47.034;7.376;2023-05-23T10:38:29;27.00;;;24.35;;
56373;SDS011;58212;47.034;7.376;2023-05-23T10:41:05;25.75;;;23.25;;
56373;SDS011;58212;47.034;7.376;2023-05-23T10:43:39;26.88;;;24.17;;
56373;SDS011;58212;47.034;7.376;2023-05-23T10:46:11;26.08;;;23.65;;
56373;SDS011;58212;47.034;7.376;2023-05-23T10:48:40;28.77;;;25.92;;
56373;SDS011;58212;47.034;7.376;2023-05-23T10:51:25;27.33;;;24.73;;
56373;SDS011;58212;47.034;7.376;2023-05-23T10:54:09;28.52;;;25.65;;
56373;SDS011;58212;47.034;7.376;2023-05-23T10:56:41;28.33;;;25.48;;
56373;SDS011;58212;47.034;7.376;2023-05-23T10:59:11;28.55;;;25.70;;
56373;SDS011;58212;47.034;7.376;2023-05-23T11:01:52;27.45;;;24.75;;
56373;SDS011;58212;47.034;7.376;2023-05-23T11:04:51;28.75;;;25.83;;
56373;SDS011;58212;47.034;7.376;2023-05-23T11:07:47;27.13;;;24.30;;
56373;SDS011;58212;47.034;7.376;2023-05-23T11:10:59;27.55;;;24.77;;
56373;SDS011;58212;47.034;7.376;2023-05-23T11:16:27;27.65;;;24.90;;
56373;SDS011;58212;47.034;7.376;2023-05-23T11:21:56;30.85;;;27.77;;
56373;SDS011;58212;47.034;7.376;2023-05-23T11:27:24;29.67;;;26.67;;
56373;SDS011;58212;47.034;7.376;2023-05-23T11:29:56;30.38;;;27.58;;
56373;SDS011;58212;47.034;7.376;2023-05-23T11:32:23;28.88;;;26.20;;
56373;SDS011;58212;47.034;7.376;2023-05-23T11:34:57;28.55;;;25.15;;
56373;SDS011;58212;47.034;7.376;2023-05-23T11:37:29;28.15;;;25.55;;
56373;SDS011;58212;47.034;7.376;2023-05-23T11:40:24;32.33;;;29.23;;
56373;SDS011;58212;47.034;7.376;2023-05-23T11:43:03;29.40;;;26.58;;
56373;SDS011;58212;47.034;7.376;2023-05-23T11:45:32;28.80;;;25.95;;
56373;SDS011;58212;47.034;7.376;2023-05-23T11:48:04;27.52;;;25.05;;
56373;SDS011;58212;47.034;7.376;2023-05-23T11:50:33;27.73;;;25.02;;
56373;SDS011;58212;47.034;7.376;2023-05-23T11:53:35;29.48;;;26.58;;
56373;SDS011;58212;47.034;7.376;2023-05-23T11:56:04;29.90;;;26.92;;
56373;SDS011;58212;47.034;7.376;2023-05-23T11:58:33;29.48;;;26.58;;
56373;SDS011;58212;47.034;7.376;2023-05-23T12:01:01;29.08;;;26.08;;
56373;SDS011;58212;47.034;7.376;2023-05-23T12:03:30;28.45;;;25.75;;
56373;SDS011;58212;47.034;7.376;2023-05-23T12:05:58;27.08;;;24.48;;
56373;SDS011;58212;47.034;7.376;2023-05-23T12:08:26;26.92;;;24.38;;
56373;SDS011;58212;47.034;7.376;2023-05-23T12:10:55;27.92;;;25.33;;
56373;SDS011;58212;47.034;7.376;2023-05-23T12:13:24;27.20;;;24.55;;
56373;SDS011;58212;47.034;7.376;2023-05-23T12:15:54;27.52;;;24.98;;
56373;SDS011;58212;47.034;7.376;2023-05-23T12:18:21;26.35;;;23.85;;
56373;SDS011;58212;47.034;7.376;2023-05-23T12:21:15;28.15;;;25.50;;
56373;SDS011;58212;47.034;7.376;2023-05-23T12:23:42;26.77;;;24.27;;
56373;SDS011;58212;47.034;7.376;2023-05-23T12:26:14;27.48;;;24.88;;
56373;SDS011;58212;47.034;7.376;2023-05-23T12:28:43;24.45;;;22.35;;
56373;SDS011;58212;47.034;7.376;2023-05-23T12:31:15;22.70;;;20.70;;
56373;SDS011;58212;47.034;7.376;2023-05-23T12:33:46;24.73;;;22.48;;
56373;SDS011;58212;47.034;7.376;2023-05-23T12:36:15;24.73;;;22.52;;
56373;SDS011;58212;47.034;7.376;2023-05-23T12:38:47;23.17;;;20.95;;
56373;SDS011;58212;47.034;7.376;2023-05-23T12:41:15;20.58;;;18.67;;
56373;SDS011;58212;47.034;7.376;2023-05-23T12:43:49;21.08;;;19.10;;
56373;SDS011;58212;47.034;7.376;2023-05-23T12:46:18;20.98;;;19.08;;
56373;SDS011;58212;47.034;7.376;2023-05-23T12:48:46;22.05;;;20.05;;
56373;SDS011;58212;47.034;7.376;2023-05-23T12:51:13;21.45;;;19.45;;
56373;SDS011;58212;47.034;7.376;2023-05-23T12:53:40;21.90;;;19.80;;
56373;SDS011;58212;47.034;7.376;2023-05-23T12:56:08;21.13;;;19.33;;
56373;SDS011;58212;47.034;7.376;2023-05-23T12:58:35;20.30;;;18.50;;
56373;SDS011;58212;47.034;7.376;2023-05-23T13:01:04;19.67;;;17.98;;
56373;SDS011;58212;47.034;7.376;2023-05-23T13:03:31;21.00;;;19.13;;
56373;SDS011;58212;47.034;7.376;2023-05-23T13:05:58;19.88;;;18.05;;
56373;SDS011;58212;47.034;7.376;2023-05-23T13:08:28;21.13;;;19.23;;
56373;SDS011;58212;47.034;7.376;2023-05-23T13:10:58;21.63;;;19.60;;
56373;SDS011;58212;47.034;7.376;2023-05-23T13:13:28;21.30;;;19.38;;
56373;SDS011;58212;47.034;7.376;2023-05-23T13:15:56;19.17;;;17.30;;
56373;SDS011;58212;47.034;7.376;2023-05-23T13:18:26;26.67;;;24.10;;
56373;SDS011;58212;47.034;7.376;2023-05-23T13:20:53;18.25;;;16.52;;
56373;SDS011;58212;47.034;7.376;2023-05-23T13:23:20;18.45;;;16.80;;
56373;SDS011;58212;47.034;7.376;2023-05-23T13:25:53;19.13;;;17.38;;
56373;SDS011;58212;47.034;7.376;2023-05-23T13:28:22;16.70;;;15.13;;
56373;SDS011;58212;47.034;7.376;2023-05-23T13:30:51;18.58;;;16.98;;
56373;SDS011;58212;47.034;7.376;2023-05-23T13:33:20;19.98;;;18.20;;
56373;SDS011;58212;47.034;7.376;2023-05-23T13:35:49;19.42;;;17.65;;
56373;SDS011;58212;47.034;7.376;2023-05-23T13:38:21;19.73;;;17.75;;
56373;SDS011;58212;47.034;7.376;2023-05-23T13:40:49;20.02;;;18.13;;
56373;SDS011;58212;47.034;7.376;2023-05-23T13:43:17;19.02;;;17.23;;
56373;SDS011;58212;47.034;7.376;2023-05-23T13:45:49;20.70;;;18.83;;
56373;SDS011;58212;47.034;7.376;2023-05-23T13:48:16;19.25;;;17.55;;
56373;SDS011;58212;47.034;7.376;2023-05-23T13:50:44;19.25;;;17.55;;
56373;SDS011;58212;47.034;7.376;2023-05-23T13:53:13;18.33;;;16.77;;
56373;SDS011;58212;47.034;7.376;2023-05-23T13:55:41;19.15;;;17.45;;
56373;SDS011;58212;47.034;7.376;2023-05-23T13:58:12;18.52;;;16.92;;
56373;SDS011;58212;47.034;7.376;2023-05-23T14:00:39;17.48;;;15.98;;
56373;SDS011;58212;47.034;7.376;2023-05-23T14:03:11;18.05;;;16.55;;
56373;SDS011;58212;47.034;7.376;2023-05-23T14:05:39;18.88;;;17.27;;
56373;SDS011;58212;47.034;7.376;2023-05-23T14:08:07;18.58;;;16.83;;
56373;SDS011;58212;47.034;7.376;2023-05-23T14:10:37;18.73;;;16.92;;
56373;SDS011;58212;47.034;7.376;2023-05-23T14:13:05;19.83;;;17.88;;
56373;SDS011;58212;47.034;7.376;2023-05-23T14:15:32;19.70;;;17.95;;
56373;SDS011;58212;47.034;7.376;2023-05-23T14:17:59;18.00;;;16.30;;
56373;SDS011;58212;47.034;7.376;2023-05-23T14:20:27;18.75;;;17.15;;
56373;SDS011;58212;47.034;7.376;2023-05-23T14:22:56;18.50;;;16.80;;
56373;SDS011;58212;47.034;7.376;2023-05-23T14:25:23;17.80;;;16.30;;
56373;SDS011;58212;47.034;7.376;2023-05-23T14:28:16;18.80;;;17.10;;
56373;SDS011;58212;47.034;7.376;2023-05-23T14:30:44;18.10;;;16.45;;
56373;SDS011;58212;47.034;7.376;2023-05-23T14:33:12;18.83;;;17.08;;
56373;SDS011;58212;47.034;7.376;2023-05-23T14:35:39;19.13;;;17.33;;
56373;SDS011;58212;47.034;7.376;2023-05-23T14:38:07;19.80;;;17.92;;
56373;SDS011;58212;47.034;7.376;2023-05-23T14:40:33;19.75;;;17.85;;
56373;SDS011;58212;47.034;7.376;2023-05-23T14:43:00;19.25;;;17.45;;
56373;SDS011;58212;47.034;7.376;2023-05-23T14:45:30;17.90;;;16.17;;
56373;SDS011;58212;47.034;7.376;2023-05-23T14:47:58;18.27;;;16.67;;
56373;SDS011;58212;47.034;7.376;2023-05-23T14:50:26;18.92;;;17.23;;
56373;SDS011;58212;47.034;7.376;2023-05-23T14:52:54;19.27;;;17.30;;
56373;SDS011;58212;47.034;7.376;2023-05-23T14:55:21;18.63;;;17.02;;
56373;SDS011;58212;47.034;7.376;2023-05-23T14:58:21;19.10;;;17.35;;
56373;SDS011;58212;47.034;7.376;2023-05-23T15:00:53;18.08;;;16.40;;
56373;SDS011;58212;47.034;7.376;2023-05-23T15:03:22;18.02;;;16.42;;
56373;SDS011;58212;47.034;7.376;2023-05-23T15:05:49;17.55;;;15.90;;
56373;SDS011;58212;47.034;7.376;2023-05-23T15:08:16;18.50;;;16.65;;
56373;SDS011;58212;47.034;7.376;2023-05-23T15:10:44;18.30;;;16.50;;